| time (UTC) | temp F | wind direction | speed MPH | gust MPH | rain 1hr in | rain 24hr in | rain mn in | humidity % | barometer mb |
| 20260506071528 | 46 | 245 | 3.0 | 0.0 | 0.00 | 0.00 | 0.23 | 96 | 1005.4 |
| 20260506061550 | 47 | 340 | 3.0 | 0.0 | 0.00 | 0.00 | 0.11 | 96 | 1005.1 |
| 20260506044546 | 49 | 342 | 1.0 | 0.0 | 0.00 | 0.00 | 0.01 | 96 | 1005.2 |
| 20260506043021 | 49 | 22 | 1.0 | 0.0 | 0.00 | 0.00 | 0.00 | 96 | 1005.4 |
| 20260506041512 | 49 | 75 | 1.0 | 0.0 | 0.00 | 0.00 | 0.00 | 96 | 1005.4 |
| 20260506040058 | 49 | 60 | 1.0 | 0.0 | 0.00 | 0.00 | 0.00 | 96 | 1005.5 |
| 20260506034543 | 49 | 40 | 2.0 | 0.0 | 0.00 | 0.00 | 0.97 | 96 | 1005.7 |
| 20260506033035 | 49 | 28 | 2.0 | 0.0 | 0.00 | 0.00 | 0.97 | 95 | 1006.0 |
| 20260506031534 | 49 | 93 | 3.0 | 0.0 | 0.00 | 0.00 | 0.95 | 95 | 1006.1 |
| 20260506030115 | 50 | 15 | 3.0 | 0.0 | 0.00 | 0.00 | 0.92 | 95 | 1006.3 |
| 20260506024532 | 50 | 29 | 3.0 | 0.0 | 0.00 | 0.00 | 0.90 | 95 | 1006.1 |
| 20260506023017 | 50 | 360 | 3.0 | 0.0 | 0.00 | 0.00 | 0.87 | 95 | 1006.2 |
| 20260506021505 | 51 | 325 | 2.0 | 0.0 | 0.00 | 0.00 | 0.83 | 95 | 1006.2 |
| 20260506020051 | 52 | 188 | 2.0 | 0.0 | 0.00 | 0.00 | 0.80 | 94 | 1005.8 |
| 20260506014531 | 54 | 217 | 3.0 | 0.0 | 0.00 | 0.00 | 0.77 | 95 | 1005.2 |
| 20260506013024 | 56 | 5 | 3.0 | 0.0 | 0.00 | 0.00 | 0.75 | 94 | 1005.3 |
| 20260506011511 | 58 | 217 | 1.0 | 0.0 | 0.00 | 0.00 | 0.71 | 96 | 1005.1 |
| 20260506010005 | 58 | 217 | 3.0 | 0.0 | 0.00 | 0.00 | 0.68 | 95 | 1005.0 |
| 20260506004625 | 58 | 207 | 4.0 | 0.0 | 0.00 | 0.00 | 0.65 | 95 | 1005.1 |
| 20260506004501 | 58 | 234 | 4.0 | 0.0 | 0.00 | 0.00 | 0.65 | 95 | 1005.1 |
| 20260506003045 | 58 | 214 | 4.0 | 0.0 | 0.00 | 0.00 | 0.62 | 95 | 1004.8 |
| 20260506001535 | 58 | 223 | 4.0 | 0.0 | 0.00 | 0.00 | 0.56 | 95 | 1004.8 |
| 20260506000027 | 58 | 211 | 4.0 | 0.0 | 0.00 | 0.00 | 0.51 | 95 | 1004.8 |
| 20260505234527 | 58 | 211 | 4.0 | 0.0 | 0.00 | 0.00 | 0.49 | 95 | 1004.9 |
| 20260505233100 | 58 | 212 | 4.0 | 0.0 | 0.00 | 0.00 | 0.47 | 95 | 1005.0 |
| 20260505233002 | 58 | 211 | 4.0 | 0.0 | 0.00 | 0.00 | 0.47 | 95 | 1005.1 |
| 20260505231554 | 59 | 226 | 3.0 | 0.0 | 0.00 | 0.00 | 0.43 | 94 | 1005.4 |
| 20260505230042 | 59 | 209 | 3.0 | 0.0 | 0.00 | 0.00 | 0.39 | 94 | 1005.6 |
| 20260505224533 | 59 | 218 | 3.0 | 0.0 | 0.00 | 0.00 | 0.36 | 94 | 1005.7 |
| 20260505223020 | 59 | 225 | 2.0 | 0.0 | 0.00 | 0.00 | 0.33 | 94 | 1005.7 |
| 20260505221511 | 59 | 215 | 2.0 | 0.0 | 0.00 | 0.00 | 0.31 | 93 | 1005.6 |
| 20260505220138 | 59 | 233 | 3.0 | 0.0 | 0.00 | 0.00 | 0.30 | 92 | 1005.6 |
| 20260505220007 | 59 | 234 | 3.0 | 0.0 | 0.00 | 0.00 | 0.28 | 92 | 1005.6 |
| 20260505214554 | 60 | 209 | 5.0 | 0.0 | 0.00 | 0.00 | 0.25 | 90 | 1005.5 |
| 20260505213032 | 62 | 261 | 3.0 | 0.0 | 0.00 | 0.00 | 0.12 | 84 | 1005.1 |
| 20260505211520 | 64 | 225 | 3.0 | 0.0 | 0.00 | 0.00 | 0.02 | 78 | 1004.1 |
| 20260505210021 | 66 | 248 | 2.0 | 0.0 | 0.00 | 0.00 | 0.01 | 72 | 1004.1 |
| 20260505204524 | 66 | 243 | 4.0 | 0.0 | 0.00 | 0.00 | 0.01 | 72 | 1004.2 |
| 20260505203012 | 66 | 227 | 3.0 | 0.0 | 0.00 | 0.00 | 0.01 | 69 | 1004.4 |
| 20260505201508 | 66 | 219 | 5.0 | 0.0 | 0.00 | 0.00 | 0.01 | 69 | 1004.6 |
| 20260505200107 | 66 | 214 | 5.0 | 0.0 | 0.00 | 0.00 | 0.01 | 70 | 1004.8 |
| 20260505200002 | 67 | 217 | 5.0 | 0.0 | 0.00 | 0.00 | 0.01 | 70 | 1004.8 |
| 20260505194555 | 66 | 234 | 5.0 | 0.0 | 0.00 | 0.00 | 0.01 | 71 | 1004.9 |
| 20260505193039 | 65 | 260 | 4.0 | 0.0 | 0.00 | 0.00 | 0.01 | 74 | 1005.2 |
| 20260505191522 | 65 | 211 | 4.0 | 0.0 | 0.00 | 0.00 | 0.01 | 74 | 1005.3 |
| 20260505190014 | 65 | 240 | 6.0 | 0.0 | 0.00 | 0.00 | 0.01 | 74 | 1005.4 |
| 20260505184524 | 65 | 229 | 6.0 | 0.0 | 0.00 | 0.00 | 0.01 | 74 | 1005.3 |
| 20260505183031 | 66 | 269 | 7.0 | 0.0 | 0.00 | 0.00 | 0.01 | 70 | 1005.4 |
| 20260505181600 | 67 | 242 | 8.0 | 0.0 | 0.00 | 0.00 | 0.00 | 67 | 1005.1 |
| 20260505181504 | 68 | 212 | 8.0 | 0.0 | 0.00 | 0.00 | 0.00 | 67 | 1005.1 |
| 20260505180049 | 68 | 234 | 7.0 | 0.0 | 0.00 | 0.00 | 0.00 | 65 | 1005.2 |
| 20260505174545 | 68 | 200 | 5.0 | 0.0 | 0.00 | 0.00 | 0.00 | 64 | 1005.3 |
| 20260505173029 | 68 | 245 | 6.0 | 0.0 | 0.00 | 0.00 | 0.00 | 64 | 1005.3 |
| 20260505171518 | 69 | 256 | 7.0 | 0.0 | 0.00 | 0.00 | 0.00 | 63 | 1005.3 |
| 20260505170002 | 67 | 207 | 9.0 | 0.0 | 0.00 | 0.00 | 0.00 | 65 | 1005.6 |
| 20260505164548 | 67 | 236 | 7.0 | 0.0 | 0.00 | 0.00 | 0.00 | 66 | 1005.7 |
| 20260505163044 | 66 | 242 | 6.0 | 0.0 | 0.00 | 0.00 | 0.00 | 69 | 1005.8 |
| 20260505161540 | 66 | 234 | 9.0 | 0.0 | 0.00 | 0.00 | 0.00 | 68 | 1006.1 |
| 20260505153020 | 66 | 219 | 10.0 | 0.0 | 0.00 | 0.00 | 0.00 | 71 | 1005.8 |
| 20260505151512 | 65 | 219 | 10.0 | 0.0 | 0.00 | 0.00 | 0.00 | 72 | 1005.8 |
| 20260505124523 | 61 | 249 | 6.0 | 0.0 | 0.00 | 0.00 | 0.00 | 79 | 1005.0 |
| 20260505123009 | 60 | 212 | 4.0 | 0.0 | 0.00 | 0.00 | 0.00 | 80 | 1004.8 |
| 20260505121559 | 60 | 219 | 3.0 | 0.0 | 0.00 | 0.00 | 0.00 | 81 | 1004.5 |
| 20260505121501 | 60 | 238 | 4.0 | 0.0 | 0.00 | 0.00 | 0.00 | 81 | 1004.5 |
| 20260505120058 | 60 | 221 | 3.0 | 0.0 | 0.00 | 0.00 | 0.00 | 80 | 1004.2 |
| 20260505114549 | 59 | 237 | 3.0 | 0.0 | 0.00 | 0.00 | 0.00 | 80 | 1003.8 |
| 20260505113037 | 59 | 207 | 5.0 | 0.0 | 0.00 | 0.00 | 0.00 | 79 | 1003.3 |
| 20260505111533 | 59 | 182 | 7.0 | 0.0 | 0.00 | 0.00 | 0.00 | 79 | 1003.1 |
| 20260505101559 | 60 | 192 | 4.0 | 0.0 | 0.00 | 0.00 | 0.00 | 76 | 1004.1 |
| 20260505100048 | 61 | 234 | 4.0 | 0.0 | 0.00 | 0.00 | 0.00 | 75 | 1004.3 |
| 20260505094536 | 61 | 248 | 3.0 | 0.0 | 0.00 | 0.00 | 0.00 | 75 | 1003.7 |
| 20260505093033 | 61 | 293 | 3.0 | 0.0 | 0.00 | 0.00 | 0.00 | 74 | 1003.6 |
| 20260505091522 | 62 | 238 | 4.0 | 0.0 | 0.00 | 0.00 | 0.00 | 72 | 1003.6 |
| 20260505090009 | 63 | 202 | 4.0 | 0.0 | 0.00 | 0.00 | 0.00 | 71 | 1003.7 |
| 20260505084554 | 63 | 248 | 4.0 | 0.0 | 0.00 | 0.00 | 0.00 | 69 | 1003.3 |
| 20260505083043 | 64 | 264 | 7.0 | 0.0 | 0.00 | 0.00 | 0.00 | 68 | 1003.0 |
| 20260505081634 | 63 | 257 | 6.0 | 0.0 | 0.00 | 0.00 | 0.00 | 70 | 1002.8 |
| 20260505074516 | 63 | 214 | 5.0 | 0.0 | 0.00 | 0.00 | 0.00 | 72 | 1002.5 |
| 20260505073012 | 64 | 222 | 11.0 | 0.0 | 0.00 | 0.00 | 0.00 | 70 | 1002.1 |